Time;durP1;ratioP1;P1;durP2;ratioP2;P2;SDS_P1;SDS_P2;PMS_P1;PMS_P2;Temp;Humidity;BMP_temperature;BMP_pressure;BME280_temperature;BME280_humidity;BME280_pressure;Samples;Min_cycle;Max_cycle;Signal;HPM_P1;HPM_P2
2021/11/18 00:01:50;;;;;;;31.25;18.67;;;;;;;-2.97;100.00;99783.11;1752758;80;21433;-61
2021/11/18 00:04:12;;;;;;;34.75;17.35;;;;;;;-2.98;100.00;99782.63;1751964;80;21434;-61
2021/11/18 00:06:44;;;;;;;31.68;17.17;;;;;;;-3.00;100.00;99782.94;1752765;80;20894;-62
2021/11/18 00:09:14;;;;;;;33.75;17.40;;;;;;;-3.04;100.00;99789.62;1752761;80;20977;-61
2021/11/18 00:11:42;;;;;;;30.77;16.52;;;;;;;-3.09;100.00;99785.88;1752763;80;21910;-61
2021/11/18 00:14:11;;;;;;;26.62;16.20;;;;;;;-3.09;100.00;99775.96;1752718;80;20964;-61
2021/11/18 00:16:40;;;;;;;27.15;16.20;;;;;;;-3.11;100.00;99780.14;1752731;80;21434;-63
2021/11/18 00:19:08;;;;;;;27.85;16.35;;;;;;;-3.13;100.00;99776.59;1752841;80;20938;-60
2021/11/18 00:21:39;;;;;;;27.93;16.25;;;;;;;-3.13;100.00;99774.01;1752843;80;21432;-61
2021/11/18 00:24:11;;;;;;;26.33;16.60;;;;;;;-3.14;100.00;99779.57;1752780;80;21049;-61
2021/11/18 00:26:45;;;;;;;24.57;15.00;;;;;;;-3.14;100.00;99775.70;1751281;80;20870;-64
2021/11/18 00:29:16;;;;;;;29.25;16.17;;;;;;;-3.11;100.00;99778.86;1752764;80;20931;-61
2021/11/18 00:31:45;;;;;;;26.00;14.63;;;;;;;-3.11;100.00;99782.33;1753262;80;21386;-61
2021/11/18 00:34:13;;;;;;;30.10;15.50;;;;;;;-3.11;100.00;99790.06;1752826;80;20902;-61
2021/11/18 00:36:42;;;;;;;27.22;15.28;;;;;;;-3.11;100.00;99787.48;1753086;80;21429;-61
2021/11/18 00:39:12;;;;;;;26.33;14.73;;;;;;;-3.12;100.00;99780.55;1752769;80;21476;-61
2021/11/18 00:41:44;;;;;;;23.47;14.73;;;;;;;-3.13;100.00;99774.90;1753020;80;20993;-60
2021/11/18 00:44:13;;;;;;;26.63;17.20;;;;;;;-3.12;100.00;99768.05;1752982;80;21413;-61
2021/11/18 00:46:42;;;;;;;26.48;14.90;;;;;;;-3.11;100.00;99763.38;1733932;80;20982;-61
2021/11/18 00:49:12;;;;;;;26.87;15.80;;;;;;;-3.11;100.00;99759.50;1752701;80;21417;-61
2021/11/18 00:51:45;;;;;;;31.17;15.60;;;;;;;-3.11;100.00;99755.63;1753132;80;21484;-60
2021/11/18 00:54:22;;;;;;;27.42;16.27;;;;;;;-3.11;100.00;99755.63;1752850;80;21359;-62
2021/11/18 00:56:53;;;;;;;29.37;14.78;;;;;;;-3.13;100.00;99751.67;1752677;80;21469;-61
2021/11/18 00:59:24;;;;;;;26.70;16.20;;;;;;;-3.16;100.00;99750.20;1753098;80;21421;-62
2021/11/18 01:01:55;;;;;;;26.50;15.78;;;;;;;-3.20;100.00;99745.67;1752783;80;21413;-61
2021/11/18 01:04:29;;;;;;;25.57;15.55;;;;;;;-3.22;100.00;99749.86;1732824;81;20890;-61
2021/11/18 01:07:10;;;;;;;24.43;15.10;;;;;;;-3.25;100.00;99740.66;1751640;80;20906;-61
2021/11/18 01:09:38;;;;;;;27.37;16.27;;;;;;;-3.27;100.00;99744.44;1752155;80;21532;-61
2021/11/18 01:12:11;;;;;;;28.30;15.28;;;;;;;-3.27;100.00;99751.28;1746402;80;20995;-63
2021/11/18 01:14:44;;;;;;;27.42;15.48;;;;;;;-3.30;100.00;99747.23;1740995;80;21130;-63
2021/11/18 01:17:15;;;;;;;28.20;15.48;;;;;;;-3.32;100.00;99751.39;1744694;80;20874;-62
2021/11/18 01:19:50;;;;;;;27.42;15.50;;;;;;;-3.35;100.00;99757.66;1742474;80;21465;-61
2021/11/18 01:22:24;;;;;;;24.40;15.32;;;;;;;-3.37;100.00;99756.68;1734621;80;20854;-61
2021/11/18 01:24:57;;;;;;;26.50;16.10;;;;;;;-3.40;100.00;99754.81;1744754;80;20929;-61
2021/11/18 01:27:33;;;;;;;26.90;15.63;;;;;;;-3.42;100.00;99752.55;1743986;80;21405;-61
2021/11/18 01:30:06;;;;;;;26.30;16.07;;;;;;;-3.42;100.00;99751.66;1744207;80;20934;-61
2021/11/18 01:32:40;;;;;;;23.77;15.40;;;;;;;-3.44;100.00;99754.55;1734408;80;21485;-61
2021/11/18 01:35:08;;;;;;;27.37;16.87;;;;;;;-3.47;100.00;99747.52;1732577;81;20966;-61
2021/11/18 01:37:46;;;;;;;26.97;16.17;;;;;;;-3.52;100.00;99749.83;1745080;80;20988;-61
2021/11/18 01:40:21;;;;;;;26.17;16.27;;;;;;;-3.54;100.00;99748.85;1744524;80;21384;-60
2021/11/18 01:42:53;;;;;;;26.37;15.75;;;;;;;-3.53;100.00;99758.77;1744633;80;20874;-62
2021/11/18 01:45:32;;;;;;;31.83;16.07;;;;;;;-3.54;100.00;99755.30;1745239;80;21406;-61
2021/11/18 01:48:09;;;;;;;28.35;16.20;;;;;;;-3.54;100.00;99747.56;1742767;80;21426;-60
2021/11/18 01:50:38;;;;;;;29.37;16.32;;;;;;;-3.52;100.00;99747.66;1744841;80;20929;-61
2021/11/18 01:53:21;;;;;;;27.60;16.50;;;;;;;-3.51;100.00;99744.27;1741986;80;21444;-61
2021/11/18 01:55:48;;;;;;;30.40;18.07;;;;;;;-3.50;100.00;99739.61;1744168;80;20894;-61
2021/11/18 01:58:24;;;;;;;29.02;17.57;;;;;;;-3.51;100.00;99735.25;1744426;80;21390;-61
2021/11/18 02:01:01;;;;;;;35.45;19.27;;;;;;;-3.50;100.00;99738.31;1706164;80;20990;-61
2021/11/18 02:03:32;;;;;;;33.58;18.73;;;;;;;-3.48;100.00;99738.00;1745176;80;20902;-61
2021/11/18 02:06:15;;;;;;;29.10;18.57;;;;;;;-3.47;100.00;99734.63;1709671;80;21461;-61
2021/11/18 02:08:50;;;;;;;30.17;17.80;;;;;;;-3.47;100.00;99734.63;1740818;80;21401;-61
2021/11/18 02:11:44;;;;;;;32.13;18.95;;;;;;;-3.46;100.00;99734.22;1747271;80;21473;-61
2021/11/18 02:14:19;;;;;;;29.60;17.75;;;;;;;-3.46;100.00;99735.52;1718875;80;21014;-61
2021/11/18 02:16:50;;;;;;;27.77;17.40;;;;;;;-3.46;100.00;99732.94;1749817;80;20942;-61
2021/11/18 02:19:20;;;;;;;33.00;17.77;;;;;;;-3.48;100.00;99734.13;1752767;80;21086;-61
2021/11/18 02:21:55;;;;;;;30.80;17.55;;;;;;;-3.49;100.00;99734.53;1752571;80;20890;-62
2021/11/18 02:24:38;;;;;;;27.93;16.12;;;;;;;-3.49;100.00;99739.70;1752125;80;20827;-61
2021/11/18 02:27:13;;;;;;;28.25;16.42;;;;;;;-3.51;100.00;99732.27;1751187;80;21468;-61
2021/11/18 02:29:49;;;;;;;31.12;17.37;;;;;;;-3.61;100.00;99735.11;1752580;80;20858;-61
2021/11/18 02:32:22;;;;;;;31.10;17.75;;;;;;;-3.73;100.00;99736.08;1753058;80;21145;-63
2021/11/18 02:34:59;;;;;;;29.02;17.07;;;;;;;-3.80;100.00;99734.80;1752546;80;20950;-62
2021/11/18 02:37:36;;;;;;;29.37;16.77;;;;;;;-3.86;100.00;99737.00;1752908;80;21428;-61
2021/11/18 02:40:09;;;;;;;30.10;18.12;;;;;;;-3.90;100.00;99731.18;1752765;80;20905;-63
2021/11/18 02:42:48;;;;;;;26.93;16.77;;;;;;;-3.92;100.00;99732.77;1752971;80;21646;-63
2021/11/18 02:45:24;;;;;;;31.40;17.77;;;;;;;-3.92;100.00;99727.22;1721162;80;21464;-63
2021/11/18 02:48:00;;;;;;;27.75;17.07;;;;;;;-3.90;100.00;99729.48;1750428;80;21418;-62
2021/11/18 02:50:37;;;;;;;27.15;17.27;;;;;;;-3.89;100.00;99729.09;1751953;80;20928;-61
2021/11/18 02:53:12;;;;;;;33.28;17.52;;;;;;;-3.89;100.00;99720.07;1734584;81;20910;-63
2021/11/18 02:55:52;;;;;;;25.62;16.82;;;;;;;-3.90;100.00;99717.89;1752740;80;21481;-61
2021/11/18 02:58:24;;;;;;;29.72;17.15;;;;;;;-3.93;100.00;99715.13;1752275;80;21353;-62
2021/11/18 03:01:13;;;;;;;32.63;17.57;;;;;;;-3.98;100.00;99715.26;1752825;80;20863;-62
2021/11/18 03:03:49;;;;;;;34.92;20.50;;;;;;;-3.99;100.00;99713.88;1724744;80;20933;-60
2021/11/18 03:06:23;;;;;;;38.23;21.17;;;;;;;-4.00;100.00;99719.83;1749937;80;21460;-60
2021/11/18 03:08:59;;;;;;;40.20;22.30;;;;;;;-4.00;100.00;99715.56;1752433;80;20933;-61
2021/11/18 03:11:29;;;;;;;36.50;22.90;;;;;;;-3.98;100.00;99717.84;1746047;80;20878;-61
2021/11/18 03:14:00;;;;;;;34.33;21.35;;;;;;;-3.95;100.00;99712.86;1744663;80;20879;-62
2021/11/18 03:16:40;;;;;;;35.85;22.05;;;;;;;-3.92;100.00;99707.89;1743501;80;21402;-61
2021/11/18 03:19:29;;;;;;;40.83;22.62;;;;;;;-3.90;100.00;99714.42;1702813;80;21469;-62
2021/11/18 03:22:08;;;;;;;39.78;22.95;;;;;;;-3.90;100.00;99711.84;1744546;80;20886;-61
2021/11/18 03:24:47;;;;;;;37.35;21.95;;;;;;;-3.88;100.00;99710.25;1743939;80;21445;-60
2021/11/18 03:27:19;;;;;;;39.03;22.67;;;;;;;-3.88;100.00;99708.97;1744099;80;21485;-61
2021/11/18 03:29:57;;;;;;;39.38;22.98;;;;;;;-3.89;100.00;99710.65;1745182;80;20914;-62
2021/11/18 03:32:28;;;;;;;40.75;21.82;;;;;;;-3.89;100.00;99714.52;1732620;80;21429;-61
2021/11/18 03:34:58;;;;;;;38.20;21.60;;;;;;;-3.89;100.00;99714.52;1745055;80;20947;-61
2021/11/18 03:37:35;;;;;;;44.08;22.25;;;;;;;-3.86;100.00;99712.52;1744952;80;21147;-61
2021/11/18 03:40:31;;;;;;;35.03;20.17;;;;;;;-3.84;100.00;99710.92;1734402;80;21466;-61
2021/11/18 03:43:18;;;;;;;35.90;21.75;;;;;;;-3.83;100.00;99713.59;1734209;80;21450;-62
2021/11/18 03:46:01;;;;;;;36.28;22.17;;;;;;;-3.82;100.00;99706.75;1744041;80;21444;-60
2021/11/18 03:48:36;;;;;;;40.10;22.17;;;;;;;-3.82;100.00;99705.45;1739384;80;21469;-61
2021/11/18 03:51:08;;;;;;;34.90;21.15;;;;;;;-3.85;100.00;99703.59;1744796;80;21471;-61
2021/11/18 03:53:39;;;;;;;72.35;23.62;;;;;;;-3.89;100.00;99700.74;1744134;80;21434;-60
2021/11/18 03:56:26;;;;;;;47.83;23.57;;;;;;;-3.94;100.00;99697.89;1743941;80;21429;-60
2021/11/18 03:59:20;;;;;;;37.95;21.85;;;;;;;-4.01;100.00;99702.19;1744390;80;21461;-62
2021/11/18 04:01:45;;;;;;;40.40;23.12;;;;;;;-4.06;100.00;99701.43;1735483;80;21383;-60
2021/11/18 04:04:24;;;;;;;38.88;22.52;;;;;;;-4.13;100.00;99696.31;1744064;80;21422;-60
2021/11/18 04:07:00;;;;;;;35.13;21.70;;;;;;;-4.16;100.00;99697.02;1742872;80;20914;-61
2021/11/18 04:09:35;;;;;;;36.20;21.87;;;;;;;-4.18;100.00;99699.01;1744204;80;21477;-61
2021/11/18 04:12:13;;;;;;;39.35;22.95;;;;;;;-4.18;100.00;99697.72;1748230;80;21446;-60
2021/11/18 04:14:54;;;;;;;41.15;23.38;;;;;;;-4.18;100.00;99699.01;1719732;80;20937;-60
2021/11/18 04:17:35;;;;;;;40.12;22.85;;;;;;;-4.18;100.00;99696.43;1753082;80;21466;-60
2021/11/18 04:20:09;;;;;;;41.70;21.77;;;;;;;-4.18;100.00;99697.32;1750631;80;21485;-61
2021/11/18 04:22:46;;;;;;;43.05;23.25;;;;;;;-4.16;100.00;99693.55;1751528;80;21410;-60
2021/11/18 04:25:24;;;;;;;43.23;22.70;;;;;;;-4.16;100.00;99691.86;1752604;80;21403;-60
2021/11/18 04:28:11;;;;;;;38.20;21.27;;;;;;;-4.16;100.00;99697.41;1753142;80;20973;-60
2021/11/18 04:33:46;;;;;;;34.85;20.82;;;;;;;-4.21;100.00;99698.82;1738179;80;21457;-60
2021/11/18 04:36:21;;;;;;;37.83;21.62;;;;;;;-4.23;100.00;99700.42;1734416;81;20933;-60
2021/11/18 04:39:09;;;;;;;35.33;22.32;;;;;;;-4.25;100.00;99703.30;1733727;80;21496;-62
2021/11/18 04:41:52;;;;;;;67.78;23.95;;;;;;;-4.27;100.00;99697.13;1719958;80;20946;-71
2021/11/18 04:44:30;;;;;;;41.75;20.97;;;;;;;-4.27;100.00;99694.16;1752690;80;22052;-61
2021/11/18 04:46:59;;;;;;;41.30;22.73;;;;;;;-4.29;100.00;99697.44;1750947;80;21488;-60
2021/11/18 04:49:28;;;;;;;51.18;23.92;;;;;;;-4.33;100.00;99698.05;1733923;81;20989;-62
2021/11/18 04:51:57;;;;;;;36.08;22.32;;;;;;;-4.34;100.00;99701.42;1733863;81;20965;-63
2021/11/18 04:54:31;;;;;;;38.17;21.45;;;;;;;-4.38;100.00;99697.77;1752894;80;21475;-66
2021/11/18 04:57:28;;;;;;;37.10;21.48;;;;;;;-4.38;100.00;99697.77;1753029;80;21757;-65
2021/11/18 04:59:56;;;;;;;37.15;22.52;;;;;;;-4.40;100.00;99699.76;1752345;80;20984;-63
2021/11/18 05:02:33;;;;;;;37.63;22.75;;;;;;;-4.40;100.00;99711.34;1752616;80;20966;-62
2021/11/18 05:05:00;;;;;;;39.08;22.35;;;;;;;-4.41;100.00;99713.03;1752052;80;21433;-64
2021/11/18 05:07:42;;;;;;;47.30;25.05;;;;;;;-4.41;100.00;99718.58;1753195;80;20918;-61
2021/11/18 05:10:20;;;;;;;39.33;22.57;;;;;;;-4.41;100.00;99714.72;1753028;80;21060;-71
2021/11/18 05:12:49;;;;;;;37.95;21.93;;;;;;;-4.40;100.00;99716.50;1737737;80;20935;-66
2021/11/18 05:15:24;;;;;;;37.30;21.40;;;;;;;-4.39;100.00;99710.55;1758151;80;21403;-68
2021/11/18 05:17:55;;;;;;;37.42;22.52;;;;;;;-4.37;100.00;99712.82;1740442;80;21548;-65
2021/11/18 05:20:23;;;;;;;43.60;22.82;;;;;;;-4.38;100.00;99712.33;1740987;80;20918;-63
2021/11/18 05:22:52;;;;;;;41.98;23.05;;;;;;;-4.38;100.00;99714.91;1757642;80;21091;-63
2021/11/18 05:25:22;;;;;;;39.35;21.25;;;;;;;-4.38;100.00;99709.36;1757846;80;20838;-63
2021/11/18 05:27:51;;;;;;;46.73;23.95;;;;;;;-4.38;100.00;99705.49;1758373;80;20938;-64
2021/11/18 05:30:19;;;;;;;49.60;24.18;;;;;;;-4.37;100.00;99716.28;1758305;80;21703;-63
2021/11/18 05:32:47;;;;;;;53.55;26.50;;;;;;;-4.36;100.00;99715.48;1758055;80;20897;-64
2021/11/18 05:35:16;;;;;;;52.38;25.17;;;;;;;-4.32;100.00;99716.17;1757865;80;21504;-64
2021/11/18 05:37:45;;;;;;;53.68;25.85;;;;;;;-4.30;100.00;99721.02;1757942;80;20882;-63
2021/11/18 05:40:13;;;;;;;59.95;25.77;;;;;;;-4.26;100.00;99724.27;1758326;80;21448;-64
2021/11/18 05:42:41;;;;;;;57.60;25.37;;;;;;;-4.22;100.00;99724.98;1740968;80;21294;-64
2021/11/18 05:45:12;;;;;;;57.40;23.10;;;;;;;-4.19;100.00;99729.03;1749713;80;20993;-63
2021/11/18 05:47:42;;;;;;;71.62;26.27;;;;;;;-4.16;100.00;99729.61;1746470;80;21107;-64
2021/11/18 05:50:11;;;;;;;42.70;24.12;;;;;;;-4.13;100.00;99729.41;1725134;81;20887;-64
2021/11/18 05:52:39;;;;;;;51.42;23.90;;;;;;;-4.10;100.00;99736.42;1747268;80;21472;-64
2021/11/18 05:55:08;;;;;;;46.73;23.92;;;;;;;-4.10;100.00;99739.00;1748888;80;21005;-62
2021/11/18 05:57:36;;;;;;;40.50;23.12;;;;;;;-4.08;100.00;99744.25;1747991;80;20987;-63
2021/11/18 06:00:10;;;;;;;42.80;23.62;;;;;;;-4.05;100.00;99744.03;1746794;80;21063;-64
2021/11/18 06:02:39;;;;;;;49.60;23.73;;;;;;;-4.02;100.00;99743.33;1746379;81;21448;-64
2021/11/18 06:05:09;;;;;;;44.90;23.00;;;;;;;-3.97;100.00;99752.23;1748881;80;20905;-64
2021/11/18 06:07:38;;;;;;;42.20;22.80;;;;;;;-3.93;100.00;99750.33;1748336;80;21478;-64
2021/11/18 06:10:08;;;;;;;83.92;25.02;;;;;;;-3.89;100.00;99751.89;1746971;80;20938;-64
2021/11/18 06:12:35;;;;;;;40.98;22.27;;;;;;;-3.83;100.00;99752.66;1751901;80;21898;-64
2021/11/18 06:15:05;;;;;;;39.70;24.07;;;;;;;-3.79;100.00;99752.04;1757877;80;21409;-64
2021/11/18 06:17:33;;;;;;;71.70;24.52;;;;;;;-3.74;100.00;99752.34;1758226;80;20935;-64
2021/11/18 06:20:02;;;;;;;43.17;23.22;;;;;;;-3.68;100.00;99754.00;1741704;80;21504;-63
2021/11/18 06:22:31;;;;;;;44.75;23.40;;;;;;;-3.64;100.00;99758.13;1754424;80;20978;-64
2021/11/18 06:25:04;;;;;;;;;;;;;;;-3.60;100.00;99759.20;1760327;80;21162;-63
2021/11/18 06:27:32;;;;;;;40.45;22.67;;;;;;;-3.58;100.00;99758.89;1758246;80;20367;-63
2021/11/18 06:30:01;;;;;;;40.80;23.95;;;;;;;-3.57;100.00;99752.94;1757978;80;21555;-63
2021/11/18 06:32:29;;;;;;;42.88;23.70;;;;;;;-3.57;100.00;99746.09;1758378;80;20929;-64
2021/11/18 06:34:58;;;;;;;38.92;23.95;;;;;;;-3.58;100.00;99746.00;1758050;80;21444;-63
2021/11/18 06:37:25;;;;;;;38.92;23.52;;;;;;;-3.59;100.00;99753.25;1758288;80;21083;-61
2021/11/18 06:39:53;;;;;;;44.60;24.05;;;;;;;-3.59;100.00;99751.96;1757981;80;21409;-63
2021/11/18 06:42:21;;;;;;;36.68;22.40;;;;;;;-3.60;100.00;99748.49;1758057;80;20843;-61
2021/11/18 06:44:56;;;;;;;40.90;24.82;;;;;;;-3.64;100.00;99750.41;1755750;80;21441;-64
2021/11/18 06:47:24;;;;;;;40.33;23.18;;;;;;;-3.63;100.00;99752.58;1758058;80;20862;-61
2021/11/18 06:49:54;;;;;;;54.33;25.27;;;;;;;-3.65;100.00;99753.78;1758403;80;21444;-62
2021/11/18 06:52:22;;;;;;;42.65;24.77;;;;;;;-3.66;100.00;99746.84;1758150;80;20862;-62
2021/11/18 06:54:49;;;;;;;50.55;25.75;;;;;;;-3.67;100.00;99747.64;1758545;80;20909;-63
2021/11/18 06:57:18;;;;;;;44.50;23.52;;;;;;;-3.67;100.00;99747.64;1758132;80;20850;-62
2021/11/18 06:59:46;;;;;;;34.18;22.58;;;;;;;-3.67;100.00;99753.20;1758455;80;20997;-62
2021/11/18 07:02:15;;;;;;;38.92;22.73;;;;;;;-3.65;100.00;99760.22;1758159;80;21097;-64
2021/11/18 07:04:45;;;;;;;36.58;22.67;;;;;;;-3.61;100.00;99756.14;1758386;80;21400;-64
2021/11/18 07:07:14;;;;;;;43.75;23.15;;;;;;;-3.57;100.00;99758.09;1758297;80;21416;-65
2021/11/18 07:09:45;;;;;;;36.03;22.82;;;;;;;-3.53;100.00;99751.03;1758449;80;21449;-62
2021/11/18 07:12:17;;;;;;;35.00;22.42;;;;;;;-3.49;100.00;99752.59;1756054;80;21350;-64
2021/11/18 07:14:45;;;;;;;51.75;24.72;;;;;;;-3.44;100.00;99753.25;1752863;80;21963;-63
2021/11/18 07:17:15;;;;;;;43.80;23.75;;;;;;;-3.39;100.00;99750.55;1753061;80;20912;-63
2021/11/18 07:19:43;;;;;;;41.35;23.95;;;;;;;-3.40;100.00;99753.92;1752807;80;20894;-63
2021/11/18 07:22:11;;;;;;;38.73;22.58;;;;;;;-3.36;100.00;99750.32;1753071;80;20940;-63
2021/11/18 07:24:57;;;;;;;45.52;22.42;;;;;;;-3.30;100.00;99754.58;1752849;80;20906;-63
2021/11/18 07:27:25;;;;;;;44.05;21.40;;;;;;;-3.24;100.00;99747.59;1753107;80;21159;-63
2021/11/18 07:29:54;;;;;;;37.30;21.05;;;;;;;-3.19;100.00;99751.33;1752696;80;20890;-63
2021/11/18 07:32:22;;;;;;;32.95;18.50;;;;;;;-3.12;100.00;99753.85;1753053;80;20921;-62
2021/11/18 07:34:51;;;;;;;31.85;18.87;;;;;;;-3.09;100.00;99752.34;1752782;80;20894;-63
2021/11/18 07:37:26;;;;;;;31.80;19.23;;;;;;;-3.01;100.00;99748.90;1752976;80;20886;-63
2021/11/18 07:39:54;;;;;;;31.02;19.73;;;;;;;-2.95;100.00;99744.08;1752777;80;21104;-62
2021/11/18 07:42:22;;;;;;;64.15;23.47;;;;;;;-2.87;100.00;99742.41;1733907;80;20893;-61
2021/11/18 07:45:09;;;;;;;48.63;25.80;;;;;;;-2.79;100.00;99745.45;1752774;80;21039;-62
2021/11/18 07:47:38;;;;;;;51.08;29.35;;;;;;;-2.69;100.00;99737.82;1750186;80;21532;-62
2021/11/18 07:50:09;;;;;;;43.65;25.30;;;;;;;-2.59;100.00;99743.98;1752743;80;20949;-61
2021/11/18 07:52:37;;;;;;;39.35;21.25;;;;;;;-2.48;100.00;99738.10;1753086;80;21022;-64
2021/11/18 07:55:06;;;;;;;34.00;19.15;;;;;;;-2.37;100.00;99735.70;1752684;80;21398;-62
2021/11/18 07:57:34;;;;;;;35.55;22.45;;;;;;;-2.28;100.00;99739.70;1733922;81;20917;-64
2021/11/18 08:00:08;;;;;;;42.67;24.15;;;;;;;-2.23;100.00;99736.95;1752793;80;21398;-62
2021/11/18 08:02:40;;;;;;;45.10;26.93;;;;;;;-2.19;100.00;99743.17;1751787;80;21445;-64
2021/11/18 08:05:09;;;;;;;43.23;26.37;;;;;;;-2.16;100.00;99740.75;1750136;80;21109;-63
2021/11/18 08:07:37;;;;;;;40.90;25.70;;;;;;;-2.12;100.00;99744.39;1753033;80;20961;-64
2021/11/18 08:10:07;;;;;;;46.45;25.88;;;;;;;-2.08;100.00;99757.55;1752677;80;21428;-63
2021/11/18 08:12:37;;;;;;;52.85;33.13;;;;;;;-1.98;100.00;99757.64;1752089;80;20890;-64
2021/11/18 08:15:09;;;;;;;42.78;25.40;;;;;;;-1.91;100.00;99750.28;1744819;80;21421;-63
2021/11/18 08:17:37;;;;;;;;;;;;;;;-1.84;100.00;99739.00;1747676;80;21073;-64
2021/11/18 08:20:07;;;;;;;36.28;21.95;;;;;;;-1.79;100.00;99734.55;1744717;80;20109;-62
2021/11/18 08:22:35;;;;;;;36.17;21.70;;;;;;;-1.73;100.00;99735.27;1744746;80;20850;-65
2021/11/18 08:25:04;;;;;;;39.25;21.93;;;;;;;-1.73;100.00;99730.09;1744821;80;21373;-63
2021/11/18 08:27:38;;;;;;;35.98;22.00;;;;;;;-1.74;100.00;99730.50;1744549;80;20933;-64
2021/11/18 08:30:10;;;;;;;35.25;21.10;;;;;;;-1.76;100.00;99738.59;1744947;80;21135;-62
2021/11/18 08:32:39;;;;;;;36.13;21.80;;;;;;;-1.75;100.00;99733.01;1744995;80;20883;-61
2021/11/18 08:35:12;;;;;;;44.08;20.85;;;;;;;-1.71;100.00;99732.36;1744343;80;20863;-61
2021/11/18 08:37:39;;;;;;;32.55;20.52;;;;;;;-1.68;100.00;99727.34;1745008;80;20897;-62
2021/11/18 08:40:09;;;;;;;32.67;19.35;;;;;;;-1.68;100.00;99723.05;1744823;80;20914;-64
2021/11/18 08:42:37;;;;;;;36.88;21.07;;;;;;;-1.61;100.00;99727.73;1745001;80;22885;-61
2021/11/18 08:45:09;;;;;;;33.13;20.32;;;;;;;-1.53;100.00;99726.83;1744755;80;20918;-61
2021/11/18 08:47:37;;;;;;;35.63;21.48;;;;;;;-1.44;100.00;99729.88;1744744;80;20895;-62
2021/11/18 08:50:10;;;;;;;32.33;20.30;;;;;;;-1.34;100.00;99728.27;1734174;81;20941;-61
2021/11/18 08:52:43;;;;;;;42.43;22.50;;;;;;;-1.24;100.00;99724.42;1744444;80;20894;-61
2021/11/18 08:55:19;;;;;;;36.53;23.12;;;;;;;-1.13;100.00;99721.95;1744919;80;21089;-62
2021/11/18 08:57:50;;;;;;;39.65;24.25;;;;;;;-1.07;100.00;99720.95;1744686;80;21479;-62
2021/11/18 09:00:27;;;;;;;35.03;21.75;;;;;;;-1.01;100.00;99721.66;1744443;80;21430;-62
2021/11/18 09:02:56;;;;;;;38.17;22.15;;;;;;;-0.95;100.00;99716.78;1741611;80;20889;-63
2021/11/18 09:05:30;;;;;;;59.42;31.12;;;;;;;-0.89;100.00;99717.11;1745058;80;20922;-63
2021/11/18 09:08:00;;;;;;;100.02;50.45;;;;;;;-0.82;100.00;99716.59;1744822;80;21464;-63
2021/11/18 09:10:30;;;;;;;71.77;39.03;;;;;;;-0.75;100.00;99717.77;1745038;80;21418;-62
2021/11/18 09:12:58;;;;;;;42.33;26.17;;;;;;;-0.67;100.00;99714.72;1744676;80;20913;-62
2021/11/18 09:15:27;;;;;;;33.25;20.10;;;;;;;-0.56;100.00;99722.11;1744810;80;21473;-63
2021/11/18 09:17:57;;;;;;;32.88;20.60;;;;;;;-0.47;100.00;99721.27;1744736;80;21002;-63
2021/11/18 09:20:30;;;;;;;36.60;21.93;;;;;;;-0.41;100.00;99718.96;1743279;80;21111;-63
2021/11/18 09:22:59;;;;;;;47.30;23.73;;;;;;;-0.34;100.00;99724.91;1744772;80;20831;-63
2021/11/18 09:25:34;;;;;;;34.33;22.80;;;;;;;-0.28;100.00;99721.70;1744405;80;21362;-63
2021/11/18 09:28:03;;;;;;;32.35;21.90;;;;;;;-0.26;100.00;99711.88;1744883;80;20910;-63
2021/11/18 09:30:38;;;;;;;34.25;21.40;;;;;;;-0.22;100.00;99711.20;1734276;80;20986;-62
2021/11/18 09:33:09;;;;;;;39.48;25.62;;;;;;;-0.16;100.00;99706.30;1744728;80;21461;-63
2021/11/18 09:35:40;;;;;;;33.80;21.52;;;;;;;-0.12;100.00;99705.61;1744658;80;20855;-62
2021/11/18 09:38:09;;;;;;;;;;;;;;;-0.08;100.00;99698.86;1747355;80;20925;-62
2021/11/18 09:40:44;;;;;;;35.23;19.55;;;;;;;-0.04;100.00;99688.69;1744770;80;20392;-62
2021/11/18 09:43:42;;;;;;;34.40;21.27;;;;;;;0.01;100.00;99689.33;1744946;80;21073;-62
2021/11/18 09:46:52;;;;;;;31.95;20.35;;;;;;;0.06;100.00;99697.79;1744754;80;21097;-61
2021/11/18 09:50:15;;;;;;;29.35;18.87;;;;;;;0.13;100.00;99706.73;1744999;80;21028;-61
2021/11/18 09:53:09;;;;;;;27.65;16.67;;;;;;;0.20;100.00;99698.39;1743096;80;20922;-61
2021/11/18 09:55:51;;;;;;;28.87;16.57;;;;;;;0.34;100.00;99694.68;1744972;80;20847;-62
2021/11/18 09:58:39;;;;;;;35.30;17.95;;;;;;;0.44;100.00;99686.88;1744758;80;20863;-61
2021/11/18 10:01:48;;;;;;;40.95;17.48;;;;;;;0.52;100.00;99684.22;1717243;80;21105;-61
2021/11/18 10:04:43;;;;;;;31.65;16.97;;;;;;;0.61;100.00;99683.31;1744637;80;21406;-61
2021/11/18 10:07:45;;;;;;;25.60;14.90;;;;;;;0.71;100.00;99680.68;1744715;80;20867;-61
2021/11/18 10:10:25;;;;;;;24.30;14.93;;;;;;;0.79;100.00;99681.47;1744759;80;20890;-61
2021/11/18 10:13:09;;;;;;;25.40;14.23;;;;;;;0.87;100.00;99671.39;1701651;81;20987;-61
2021/11/18 10:15:45;;;;;;;22.37;15.10;;;;;;;0.97;100.00;99669.67;1748254;80;21996;-61
2021/11/18 10:18:22;;;;;;;26.60;14.05;;;;;;;1.06;100.00;99660.05;1736010;80;20874;-61
2021/11/18 10:20:55;;;;;;;20.25;14.00;;;;;;;1.14;100.00;99657.34;1736404;80;21612;-63
2021/11/18 10:23:24;;;;;;;25.57;13.08;;;;;;;1.23;100.00;99652.50;1737327;80;21740;-60
2021/11/18 10:26:04;;;;;;;21.97;13.65;;;;;;;1.32;100.00;99650.67;1739688;80;21508;-62
2021/11/18 10:28:46;;;;;;;20.27;13.85;;;;;;;1.45;100.00;99646.44;1735738;80;21481;-60
2021/11/18 10:31:40;;;;;;;24.60;14.38;;;;;;;1.68;100.00;99634.30;1716892;82;21028;-62
2021/11/18 10:34:44;;;;;;;21.42;13.30;;;;;;;1.96;100.00;99625.38;1742471;80;21445;-62
2021/11/18 10:37:23;;;;;;;21.37;13.50;;;;;;;2.26;100.00;99628.16;1737875;80;20862;-62
2021/11/18 10:40:27;;;;;;;15.03;9.78;;;;;;;2.62;100.00;99622.03;1735609;80;21461;-62
2021/11/18 10:43:17;;;;;;;13.08;8.98;;;;;;;2.93;100.00;99624.34;1736862;80;20886;-63
2021/11/18 10:45:49;;;;;;;26.33;10.00;;;;;;;3.26;100.00;99607.55;1739245;80;20929;-63
2021/11/18 10:48:22;;;;;;;;;;;;;;;3.56;100.00;99605.88;1741358;80;20839;-63
2021/11/18 10:50:58;;;;;;;14.45;8.13;;;;;;;3.83;100.00;99595.79;1734845;80;20435;-63
2021/11/18 10:53:34;;;;;;;13.55;8.15;;;;;;;4.08;100.00;99588.66;1735685;80;21071;-64
2021/11/18 10:56:09;;;;;;;17.25;10.43;;;;;;;4.33;100.00;99584.99;1729083;80;21780;-63
2021/11/18 10:58:44;;;;;;;22.20;13.00;;;;;;;4.59;100.00;99584.75;1736763;80;20902;-63
2021/11/18 11:01:29;;;;;;;21.55;12.40;;;;;;;4.83;100.00;99577.53;1725829;81;20862;-64
2021/11/18 11:03:59;;;;;;;14.25;10.23;;;;;;;5.07;100.00;99585.05;1736565;80;20890;-63
2021/11/18 11:06:29;;;;;;;14.58;9.63;;;;;;;5.30;100.00;99581.66;1739245;80;20949;-65
2021/11/18 11:09:14;;;;;;;18.45;10.05;;;;;;;5.47;100.00;99576.79;1726987;82;21897;-62
2021/11/18 11:12:07;;;;;;;12.40;9.05;;;;;;;5.57;100.00;99569.59;1722999;82;20901;-62
2021/11/18 11:15:18;;;;;;;14.87;10.32;;;;;;;5.66;100.00;99575.00;1722924;82;21005;-63
2021/11/18 11:18:16;;;;;;;22.73;12.03;;;;;;;5.74;100.00;99568.64;1752742;82;21431;-63
2021/11/18 11:20:53;;;;;;;18.20;11.50;;;;;;;5.81;100.00;99573.15;1753092;80;20948;-62
2021/11/18 11:23:52;;;;;;;32.23;15.50;;;;;;;5.87;100.00;99570.22;1752585;81;21118;-63
2021/11/18 11:26:57;;;;;;;26.52;14.53;;;;;;;5.88;100.00;99565.44;1738574;80;20919;-63
2021/11/18 11:29:56;;;;;;;21.40;14.25;;;;;;;5.88;100.00;99564.13;1752769;80;20887;-63
2021/11/18 11:32:55;;;;;;;28.02;15.95;;;;;;;5.92;100.00;99558.56;1753002;82;21466;-62
2021/11/18 11:35:31;;;;;;;28.17;15.68;;;;;;;5.98;100.00;99563.48;1752508;80;20951;-63
2021/11/18 11:38:13;;;;;;;35.55;19.85;;;;;;;6.00;100.00;99557.84;1752981;80;21091;-66
2021/11/18 11:41:13;;;;;;;28.98;15.93;;;;;;;6.05;100.00;99550.50;1752750;80;20911;-66
2021/11/18 11:43:52;;;;;;;84.58;36.00;;;;;;;6.05;100.00;99559.24;1753009;80;20996;-67
2021/11/18 11:46:38;;;;;;;38.78;20.90;;;;;;;6.00;100.00;99546.48;1744267;80;20940;-64
2021/11/18 11:49:29;;;;;;;28.20;16.62;;;;;;;5.94;100.00;99554.23;1752605;81;20888;-63
2021/11/18 11:52:24;;;;;;;29.67;17.17;;;;;;;5.83;100.00;99550.50;1753175;80;21166;-62